Latest Weather Observations for Holmes Reef

IDQ60801

Issued at 1:05 am EST Thursday 31 July 2014 (issued every 30 minutes, with the page automatically refreshed every 10 minutes)

About weather observations | Map of weather stations | Latest weather observations for QLD | Other Formats
Station Details ID: 200732 Name: HOLMES REEF Lat: -16.47 Lon: 147.87 Height: 1.9 m
Data from the previous 72 hours. | See also: Recent months at Holmes Reef
Date/Time
EST
Temp
°C
App
Temp
°C
Dew
Point
Rel
Hum
%
Delta-T
°C
Wind Press
QNH
hPa
Press
MSL
hPa
Rain
since 9 am
mm
Dir
 
Spd
km/h
Gust
km/h
Spd
kts
Gust
kts
31/01:00am 24.1 - - - - E 33 39 18 21 1017.3 - -
31/12:30am 24.0 - - - - E 33 37 18 20 1017.4 - -
31/12:15am 24.2 - - - - E 33 - 18 - - 1017.3 -
31/12:00am 24.0 - - - - E 35 39 19 21 1017.6 - -
 
Date/Time
EST
Temp
°C
App
Temp
°C
Dew
Point
Rel
Hum
%
Delta-T
°C
Wind Press
QNH
hPa
Press
MSL
hPa
Rain
since 9 am
mm
Dir
 
Spd
km/h
Gust
km/h
Spd
kts
Gust
kts
30/11:30pm 24.0 - - - - E 35 39 19 21 1017.6 - -
30/11:15pm 24.1 - - - - E 35 - 19 - - 1017.4 -
30/11:00pm 24.0 - - - - E 35 41 19 22 1017.8 - -
30/10:30pm 24.2 - - - - E 33 41 18 22 1018.0 - -
30/10:15pm 24.3 - - - - E 35 - 19 - - 1017.7 -
30/10:00pm 24.2 - - - - E 33 39 18 21 1018.1 - -
30/09:30pm 24.2 - - - - E 33 39 18 21 1018.1 - -
30/09:15pm 24.2 - - - - E 35 - 19 - - 1017.7 -
30/09:00pm 24.2 - - - - E 35 41 19 22 1017.9 - -
30/08:30pm 24.3 - - - - E 33 39 18 21 1017.7 - -
30/08:15pm 24.1 - - - - ESE 33 - 18 - - 1017.3 -
30/08:00pm 24.1 - - - - ESE 33 39 18 21 1017.5 - -
30/07:30pm 24.0 - - - - E 33 39 18 21 1017.2 - -
30/07:15pm 23.6 - - - - ESE 30 - 16 - - 1016.7 -
30/07:00pm 23.5 - - - - SE 33 37 18 20 1016.8 - -
30/06:30pm 23.7 - - - - ESE 33 43 18 23 1016.7 - -
30/06:15pm 23.4 - - - - SE 33 - 18 - - 1016.2 -
30/06:00pm 23.6 - - - - SE 33 37 18 20 1016.6 - -
30/05:30pm 23.5 - - - - ESE 32 37 17 20 1016.4 - -
30/05:15pm 23.4 - - - - ESE 33 - 18 - - 1016.1 -
30/05:00pm 23.5 - - - - SE 35 39 19 21 1016.5 - -
30/04:30pm 23.6 - - - - SE 32 37 17 20 1016.4 - -
30/04:15pm 23.4 - - - - SE 33 - 18 - - 1016.0 -
30/04:00pm 23.7 - - - - SE 30 33 16 18 1016.3 - -
30/03:30pm 24.0 - - - - ESE 32 35 17 19 1016.2 - -
30/03:15pm 23.9 - - - - SE 32 - 17 - - 1015.9 -
30/03:00pm 23.9 - - - - ESE 32 35 17 19 1016.3 - -
30/02:30pm 23.9 - - - - ESE 32 37 17 20 1016.5 - -
30/02:15pm 23.7 - - - - ESE 32 - 17 - - 1016.3 -
30/02:00pm 23.7 - - - - ESE 32 37 17 20 1016.6 - -
30/01:30pm 23.9 - - - - ESE 28 33 15 18 1016.9 - -
30/01:15pm 23.8 - - - - ESE 28 - 15 - - 1016.7 -
30/01:00pm 23.8 - - - - ESE 30 33 16 18 1017.2 - -
30/12:30pm 24.3 - - - - E 28 33 15 18 1017.7 - -
30/12:15pm 24.1 - - - - E 28 - 15 - - 1017.6 -
30/12:00pm 24.2 - - - - E 30 33 16 18 1018.1 - -
30/11:30am 24.0 - - - - ESE 28 33 15 18 1018.5 - -
30/11:15am 24.0 - - - - ESE 28 - 15 - - 1018.4 -
30/11:00am 23.7 - - - - SE 30 35 16 19 1018.9 - -
30/10:30am 22.7 - - - - ESE 32 39 17 21 1019.4 - -
30/10:15am 21.7 - - - - ESE 35 - 19 - - 1019.4 -
30/10:00am 22.5 - - - - SE 30 43 16 23 1019.7 - -
30/09:30am 22.3 - - - - SE 30 41 16 22 1019.7 - -
30/09:25am 22.1 - - - - SE 32 44 17 24 1019.8 - -
30/09:15am 22.1 - - - - E 43 - 23 - - 1019.5 -
30/09:00am 23.2 - - - - E 39 44 21 24 1019.8 - -
30/08:49am 22.8 - - - - E 39 46 21 25 1019.7 - -
30/08:30am 24.2 - - - - SE 30 35 16 19 1019.6 - -
30/08:15am 24.2 - - - - ESE 28 - 15 - - 1019.2 -
30/08:00am 24.2 - - - - ESE 28 32 15 17 1019.3 - -
30/07:30am 24.2 - - - - ESE 28 33 15 18 1019.1 - -
30/07:15am 24.3 - - - - ESE 28 26 15 14 1018.8 1018.5 -
30/07:00am 24.0 - - - - ESE 28 32 15 17 1018.6 - -
30/06:30am 23.8 - - - - ESE 28 32 15 17 1018.4 - -
30/06:15am 23.9 - - - - ESE 32 - 17 - - 1018.0 -
30/06:00am 23.9 - - - - ESE 32 35 17 19 1018.2 - -
30/05:30am 23.9 - - - - ESE 33 37 18 20 1017.9 - -
30/05:15am 23.9 - - - - ESE 32 - 17 - - 1017.5 -
30/05:00am 24.0 - - - - ESE 32 35 17 19 1017.8 - -
30/04:30am 23.8 - - - - ESE 30 35 16 19 1017.6 - -
30/04:15am 23.8 - - - - ESE 32 - 17 - - 1017.2 -
30/04:00am 23.6 - - - - ESE 32 37 17 20 1017.4 - -
30/03:30am 23.6 - - - - ESE 33 39 18 21 1017.4 - -
30/03:15am 23.6 - - - - ESE 35 - 19 - - 1017.0 -
30/03:00am 23.5 - - - - ESE 35 41 19 22 1017.4 - -
30/02:30am 23.5 - - - - E 37 43 20 23 1017.6 - -
30/02:15am 23.7 - - - - ESE 41 - 22 - - 1017.4 -
30/02:00am 23.7 - - - - ESE 39 44 21 24 1017.7 - -
30/01:30am 23.7 - - - - E 33 39 18 21 1018.3 - -
30/01:15am 23.7 - - - - E 33 - 18 - - 1018.1 -
30/01:00am 23.8 - - - - E 32 37 17 20 1018.5 - -
30/12:30am 23.7 - - - - E 32 37 17 20 1018.8 - -
30/12:15am 23.7 - - - - E 30 - 16 - - 1018.6 -
30/12:00am 23.8 - - - - ESE 33 37 18 20 1019.0 - -
 
Date/Time
EST
Temp
°C
App
Temp
°C
Dew
Point
Rel
Hum
%
Delta-T
°C
Wind Press
QNH
hPa
Press
MSL
hPa
Rain
since 9 am
mm
Dir
 
Spd
km/h
Gust
km/h
Spd
kts
Gust
kts
29/11:30pm 24.0 - - - - E 30 35 16 19 1019.1 - -
29/11:15pm 24.0 - - - - E 28 - 15 - - 1018.8 -
29/11:00pm 24.0 - - - - ESE 28 32 15 17 1019.1 - -
29/10:30pm 23.9 - - - - E 28 33 15 18 1019.2 - -
29/10:15pm 23.8 - - - - E 28 - 15 - - 1019.0 -
29/10:00pm 23.9 - - - - E 30 33 16 18 1019.3 - -
29/09:30pm 23.8 - - - - E 30 33 16 18 1019.2 - -
29/09:15pm 23.8 - - - - E 28 - 15 - - 1018.9 -
29/09:00pm 23.8 - - - - E 28 33 15 18 1019.0 - -
29/08:30pm 23.9 - - - - ESE 28 32 15 17 1018.8 - -
29/08:15pm 24.0 - - - - E 28 - 15 - - 1018.4 -
29/08:00pm 24.0 - - - - E 30 35 16 19 1018.6 - -
29/07:30pm 24.1 - - - - E 32 35 17 19 1018.5 - -
29/07:15pm 24.1 - - - - E 30 - 16 - - 1018.1 -
29/07:00pm 24.0 - - - - E 28 33 15 18 1018.2 - -
29/06:30pm 24.0 - - - - ESE 28 32 15 17 1017.9 - -
29/06:15pm 24.0 - - - - ESE 26 - 14 - - 1017.5 -
29/06:00pm 24.0 - - - - ESE 26 30 14 16 1017.7 - -
29/05:30pm 24.2 - - - - ESE 26 30 14 16 1017.8 - -
29/05:15pm 24.1 - - - - ESE 26 - 14 - - 1017.4 -
29/05:00pm 24.2 - - - - ESE 26 30 14 16 1017.5 - -
29/04:30pm 24.3 - - - - ESE 24 28 13 15 1017.3 - -
29/04:15pm 24.3 - - - - E 24 - 13 - - 1016.9 -
29/04:00pm 24.2 - - - - ESE 24 28 13 15 1017.1 - -
29/03:30pm 24.2 - - - - ESE 26 30 14 16 1017.2 - -
29/03:15pm 24.1 - - - - E 26 - 14 - - 1017.0 -
29/03:00pm 24.3 - - - - ESE 26 32 14 17 1017.3 - -
29/02:30pm 24.2 - - - - E 30 35 16 19 1017.5 - -
29/02:15pm 24.2 - - - - ESE 30 - 16 - - 1017.2 -
29/02:00pm 24.2 - - - - ESE 30 35 16 19 1017.7 - -
29/01:30pm 24.1 - - - - ESE 28 35 15 19 1018.1 - -
29/01:15pm 24.1 - - - - ESE 28 - 15 - - 1018.0 -
29/12:30pm 24.2 - - - - E 33 37 18 20 1018.9 - -
29/12:15pm 24.2 - - - - ESE 33 - 18 - - 1018.8 -
29/12:00pm 24.2 - - - - ESE 33 39 18 21 1019.3 - -
29/11:30am 24.3 - - - - ESE 33 39 18 21 1019.6 - -
29/11:15am 24.2 - - - - ESE 33 - 18 - - 1019.4 -
29/11:00am 24.2 - - - - ESE 33 39 18 21 1019.8 - -
29/10:30am 24.2 - - - - SE 33 41 18 22 1020.0 - -
29/10:15am 24.3 - - - - ESE 32 - 17 - - 1019.7 -
29/10:00am 24.3 - - - - ESE 33 39 18 21 1020.1 - -
29/09:30am 24.2 - - - - ESE 35 43 19 23 1020.1 - -
29/09:15am 24.3 - - - - ESE 37 - 20 - - 1019.8 -
29/09:00am 24.3 - - - - ESE 37 43 20 23 1020.1 - -
29/08:30am 24.3 - - - - ESE 33 39 18 21 1019.8 - -
29/08:15am 24.3 - - - - ESE 33 - 18 - - 1019.3 -
29/08:00am 24.2 - - - - ESE 33 39 18 21 1019.4 - -
29/07:30am 23.9 - - - - ESE 35 39 19 21 1019.2 - -
29/07:15am 23.9 - - - - ESE 33 - 18 - - 1018.7 -
29/07:00am 23.9 - - - - ESE 32 39 17 21 1018.9 - -
29/06:30am 23.9 - - - - ESE 32 39 17 21 1018.6 - -
29/06:15am 23.8 - - - - ESE 33 - 18 - - 1018.2 -
29/06:00am 23.9 - - - - ESE 32 35 17 19 1018.3 - -
29/05:30am 23.7 - - - - ESE 32 35 17 19 1018.0 - -
29/05:15am 23.8 - - - - ESE 30 - 16 - - 1017.6 -
29/05:00am 23.7 - - - - ESE 32 37 17 20 1017.9 - -
29/04:30am 23.7 - - - - ESE 32 35 17 19 1017.7 - -
29/04:15am 23.7 - - - - ESE 32 - 17 - - 1017.4 -
29/04:00am 23.7 - - - - ESE 30 33 16 18 1017.7 - -
29/03:30am 23.6 - - - - ESE 30 35 16 19 1017.7 - -
29/03:15am 23.7 - - - - ESE 30 - 16 - - 1017.4 -
29/03:00am 23.5 - - - - ESE 32 35 17 19 1017.7 - -
29/02:30am 23.7 - - - - ESE 30 35 16 19 1017.9 - -
29/02:15am 23.5 - - - - ESE 30 - 16 - - 1017.7 -
29/02:00am 23.5 - - - - ESE 30 35 16 19 1018.2 - -
29/01:30am 23.6 - - - - ESE 30 35 16 19 1018.3 - -
29/01:15am 23.8 - - - - ESE 30 - 16 - - 1018.2 -
29/01:00am 23.5 - - - - ESE 30 35 16 19 1018.5 - -
29/12:30am 23.7 - - - - ESE 32 37 17 20 1018.6 - -
29/12:15am 23.6 - - - - ESE 33 - 18 - - 1018.3 -
29/12:00am 23.6 - - - - ESE 33 37 18 20 1018.7 - -
 
Date/Time
EST
Temp
°C
App
Temp
°C
Dew
Point
Rel
Hum
%
Delta-T
°C
Wind Press
QNH
hPa
Press
MSL
hPa
Rain
since 9 am
mm
Dir
 
Spd
km/h
Gust
km/h
Spd
kts
Gust
kts
28/11:15pm 23.7 - - - - E 32 - 17 - - 1018.6 -
28/11:00pm 23.7 - - - - E 33 37 18 20 1018.9 - -
28/10:30pm 23.6 - - - - ESE 33 39 18 21 1019.0 - -
28/10:15pm 23.8 - - - - ESE 33 - 18 - - 1018.7 -
28/10:00pm 23.7 - - - - ESE 33 39 18 21 1019.0 - -
28/09:30pm 23.7 - - - - ESE 35 41 19 22 1018.9 - -
28/09:15pm 24.0 - - - - ESE 37 - 20 - - 1018.6 -
28/09:00pm 23.8 - - - - ESE 39 43 21 23 1018.8 - -
28/08:30pm 23.7 - - - - ESE 37 43 20 23 1018.8 - -
28/08:15pm 23.8 - - - - ESE 33 - 18 - - 1018.5 -
28/08:00pm 23.6 - - - - ESE 37 44 20 24 1018.7 - -
28/07:30pm 23.9 - - - - ESE 35 41 19 22 1018.5 - -
28/07:15pm 23.9 - - - - ESE 35 - 19 - - 1018.1 -
28/07:00pm 23.9 - - - - ESE 37 43 20 23 1018.2 - -
28/06:15pm 23.7 - - - - ESE 37 - 20 - - 1017.4 -
28/06:00pm 23.8 - - - - ESE 35 41 19 22 1017.6 - -
28/05:30pm 24.0 - - - - ESE 35 39 19 21 1017.3 - -
28/05:15pm 24.3 - - - - ESE 35 - 19 - - 1016.9 -
28/05:00pm 23.8 - - - - ESE 35 41 19 22 1017.1 - -
28/04:30pm 23.8 - - - - ESE 33 39 18 21 1017.2 - -
28/04:15pm 23.6 - - - - E 35 - 19 - - 1016.8 -
28/04:00pm 23.9 - - - - E 37 41 20 22 1017.0 - -
28/03:30pm 23.9 - - - - ESE 32 43 17 23 1016.9 - -
28/03:15pm 23.6 - - - - ESE 32 - 17 - - 1016.6 -
28/03:00pm 23.5 - - - - ESE 33 43 18 23 1017.0 - -
28/02:30pm 22.9 - - - - ESE 43 50 23 27 1017.3 - -
28/02:15pm 23.8 - - - - E 33 - 18 - - 1017.2 -
28/02:00pm 23.9 - - - - ESE 32 37 17 20 1017.4 - -
28/01:30pm 23.2 - - - - E 33 46 18 25 1017.8 - -
28/01:15pm 23.6 - - - - E 28 - 15 - - 1017.6 -
28/01:00pm 22.6 - - - - E 26 37 14 20 1018.3 - -
28/12:50pm 22.7 - - - - E 35 44 19 24 1018.5 - -
28/12:34pm 23.4 - - - - ESE 37 43 20 23 1018.5 - -
28/12:30pm 23.0 - - - - E 33 44 18 24 1018.6 - -
28/12:15pm 24.0 - - - - ESE 35 - 19 - - 1018.4 -
28/12:00pm 24.0 - - - - ESE 35 43 19 23 1018.9 - -
28/11:30am 24.0 - - - - ESE 37 43 20 23 1019.2 - -
28/11:15am 24.0 - - - - ESE 39 - 21 - - 1019.1 -
28/11:00am 24.0 - - - - ESE 37 43 20 23 1019.6 - -
28/10:30am 24.0 - - - - ESE 35 41 19 22 1020.0 - -
28/10:15am 24.0 - - - - ESE 37 - 20 - - 1019.8 -
28/10:00am 24.0 - - - - ESE 37 41 20 22 1020.1 - -
28/09:30am 24.0 - - - - ESE 37 43 20 23 1020.1 - -
28/09:15am 24.0 - - - - ESE 39 - 21 - - 1019.8 -
28/09:00am 24.1 - - - - ESE 37 43 20 23 1020.0 - -
28/08:30am 24.0 - - - - ESE 39 44 21 24 1019.6 - -
28/08:15am 23.8 - - - - ESE 37 - 20 - - 1019.2 -
28/08:00am 23.7 - - - - ESE 37 43 20 23 1019.3 - -
28/07:30am 23.8 - - - - ESE 37 43 20 23 1018.9 - -
28/07:15am 23.7 - - - - ESE 39 - 21 - - 1018.4 -
28/07:00am 23.7 - - - - ESE 39 46 21 25 1018.5 - -
28/06:30am 23.6 - - - - ESE 39 44 21 24 1018.3 - -
28/06:15am 23.7 - - - - ESE 39 - 21 - - 1018.0 -
28/06:00am 23.6 - - - - ESE 37 43 20 23 1018.2 - -
28/05:30am 23.7 - - - - ESE 41 46 22 25 1017.9 - -
28/05:15am 23.6 - - - - ESE 39 - 21 - - 1017.4 -
28/05:00am 23.6 - - - - ESE 39 46 21 25 1017.6 - -
28/04:30am 23.6 - - - - ESE 39 44 21 24 1017.5 - -
28/04:15am 23.5 - - - - ESE 39 - 21 - - 1017.3 -
28/04:00am 23.6 - - - - ESE 41 48 22 26 1017.5 - -
28/03:30am 23.7 - - - - ESE 41 48 22 26 1017.6 - -
28/03:15am 23.5 - - - - ESE 39 - 21 - - 1017.3 -
28/03:00am 23.7 - - - - ESE 39 46 21 25 1017.6 - -
28/02:30am 23.7 - - - - ESE 41 48 22 26 1017.7 - -
28/02:15am 23.6 - - - - ESE 43 - 23 - - 1017.5 -
28/02:00am 23.8 - - - - ESE 39 46 21 25 1018.0 - -
28/01:30am 23.7 - - - - ESE 41 46 22 25 1018.2 - -
28/01:15am 23.7 - - - - ESE 39 - 21 - - 1018.1 -

Other Formats:

Comma delimited format used in spreadsheet applications
http://www.bom.gov.au/fwo/IDQ60801/IDQ60801.94289.axf

JavaScript Object Notation format (JSON) in row-major order
http://www.bom.gov.au/fwo/IDQ60801/IDQ60801.94289.json